sensor_id;sensor_type;location;lat;lon;timestamp;pressure;altitude;pressure_sealevel;temperature;humidity
28606;BME280;46498;49.968;7.754;2023-05-08T00:03:47;-18702.00;;;13.30;100.00
28606;BME280;46498;49.968;7.754;2023-05-08T00:08:49;-18702.00;;;13.31;100.00
28606;BME280;46498;49.968;7.754;2023-05-08T00:13:49;-18700.00;;;13.26;100.00
28606;BME280;46498;49.968;7.754;2023-05-08T00:18:50;-18698.00;;;13.20;100.00
28606;BME280;46498;49.968;7.754;2023-05-08T00:23:53;-18694.00;;;13.07;100.00
28606;BME280;46498;49.968;7.754;2023-05-08T00:28:53;-18696.00;;;13.12;100.00
28606;BME280;46498;49.968;7.754;2023-05-08T00:33:55;-18697.00;;;13.18;100.00
28606;BME280;46498;49.968;7.754;2023-05-08T00:38:56;-18694.00;;;13.06;100.00
28606;BME280;46498;49.968;7.754;2023-05-08T00:43:56;-18701.00;;;13.29;100.00
28606;BME280;46498;49.968;7.754;2023-05-08T00:48:57;-18699.00;;;13.22;100.00
28606;BME280;46498;49.968;7.754;2023-05-08T00:53:58;-18696.00;;;13.13;100.00
28606;BME280;46498;49.968;7.754;2023-05-08T00:58:59;-18693.00;;;13.04;100.00
28606;BME280;46498;49.968;7.754;2023-05-08T01:04:02;-18697.00;;;13.15;100.00
28606;BME280;46498;49.968;7.754;2023-05-08T01:09:03;-18698.00;;;13.20;100.00
28606;BME280;46498;49.968;7.754;2023-05-08T01:14:20;-18699.00;;;13.23;100.00
28606;BME280;46498;49.968;7.754;2023-05-08T01:19:55;-18701.00;;;13.30;100.00
28606;BME280;46498;49.968;7.754;2023-05-08T01:37:10;-18704.00;;;13.38;100.00
28606;BME280;46498;49.968;7.754;2023-05-08T01:42:27;-18695.00;;;13.11;100.00
28606;BME280;46498;49.968;7.754;2023-05-08T01:47:36;-18694.00;;;13.07;100.00
28606;BME280;46498;49.968;7.754;2023-05-08T01:52:44;-18692.00;;;13.01;100.00
28606;BME280;46498;49.968;7.754;2023-05-08T01:57:48;-18696.00;;;13.12;100.00
28606;BME280;46498;49.968;7.754;2023-05-08T02:02:51;-18699.00;;;13.22;100.00
28606;BME280;46498;49.968;7.754;2023-05-08T02:07:54;-18702.00;;;13.31;100.00
28606;BME280;46498;49.968;7.754;2023-05-08T02:12:58;-18703.00;;;13.34;100.00
28606;BME280;46498;49.968;7.754;2023-05-08T02:18:03;-18705.00;;;13.42;100.00
28606;BME280;46498;49.968;7.754;2023-05-08T02:23:05;-18707.00;;;13.46;100.00
28606;BME280;46498;49.968;7.754;2023-05-08T02:28:06;-18701.00;;;13.29;100.00
28606;BME280;46498;49.968;7.754;2023-05-08T02:33:09;-18697.00;;;13.18;100.00
28606;BME280;46498;49.968;7.754;2023-05-08T02:38:13;-18698.00;;;13.20;100.00
28606;BME280;46498;49.968;7.754;2023-05-08T02:43:15;-18699.00;;;13.23;100.00
28606;BME280;46498;49.968;7.754;2023-05-08T02:48:25;-18698.00;;;13.21;100.00
28606;BME280;46498;49.968;7.754;2023-05-08T02:53:36;-18700.00;;;13.27;100.00
28606;BME280;46498;49.968;7.754;2023-05-08T02:58:51;-18696.00;;;13.11;100.00
28606;BME280;46498;49.968;7.754;2023-05-08T03:04:02;-18693.00;;;13.05;100.00
28606;BME280;46498;49.968;7.754;2023-05-08T03:09:05;-18690.00;;;12.93;100.00
28606;BME280;46498;49.968;7.754;2023-05-08T03:14:10;-18693.00;;;13.04;100.00
28606;BME280;46498;49.968;7.754;2023-05-08T03:19:23;-18694.00;;;13.05;100.00
28606;BME280;46498;49.968;7.754;2023-05-08T03:24:26;-18690.00;;;12.94;100.00
28606;BME280;46498;49.968;7.754;2023-05-08T03:29:29;-18693.00;;;13.02;100.00
28606;BME280;46498;49.968;7.754;2023-05-08T03:34:31;-18687.00;;;12.84;100.00
28606;BME280;46498;49.968;7.754;2023-05-08T03:39:33;-18678.00;;;12.57;100.00
28606;BME280;46498;49.968;7.754;2023-05-08T03:44:34;-18678.00;;;12.58;100.00
28606;BME280;46498;49.968;7.754;2023-05-08T03:49:36;-18677.00;;;12.52;100.00
28606;BME280;46498;49.968;7.754;2023-05-08T03:54:38;-18675.00;;;12.46;100.00
28606;BME280;46498;49.968;7.754;2023-05-08T04:00:06;-18674.00;;;12.44;100.00
28606;BME280;46498;49.968;7.754;2023-05-08T04:05:23;-18668.00;;;12.25;100.00
28606;BME280;46498;49.968;7.754;2023-05-08T04:10:36;-18674.00;;;12.43;100.00
28606;BME280;46498;49.968;7.754;2023-05-08T04:15:51;-18677.00;;;12.52;100.00
28606;BME280;46498;49.968;7.754;2023-05-08T04:20:55;-18679.00;;;12.59;100.00
28606;BME280;46498;49.968;7.754;2023-05-08T04:25:56;-18678.00;;;12.57;100.00
28606;BME280;46498;49.968;7.754;2023-05-08T04:30:58;-18680.00;;;12.61;100.00
28606;BME280;46498;49.968;7.754;2023-05-08T04:36:00;-18683.00;;;12.73;100.00
28606;BME280;46498;49.968;7.754;2023-05-08T04:41:03;-18684.00;;;12.76;100.00
28606;BME280;46498;49.968;7.754;2023-05-08T04:46:04;-18681.00;;;12.65;100.00
28606;BME280;46498;49.968;7.754;2023-05-08T04:51:06;-18674.00;;;12.44;100.00
28606;BME280;46498;49.968;7.754;2023-05-08T04:56:07;-18678.00;;;12.57;100.00
28606;BME280;46498;49.968;7.754;2023-05-08T05:01:08;-18677.00;;;12.52;100.00
28606;BME280;46498;49.968;7.754;2023-05-08T05:06:09;-18676.00;;;12.50;100.00
28606;BME280;46498;49.968;7.754;2023-05-08T05:11:10;-18672.00;;;12.37;100.00
28606;BME280;46498;49.968;7.754;2023-05-08T05:16:11;-18674.00;;;12.42;100.00
28606;BME280;46498;49.968;7.754;2023-05-08T05:21:13;-18669.00;;;12.29;100.00
28606;BME280;46498;49.968;7.754;2023-05-08T05:26:14;-18664.00;;;12.13;100.00
28606;BME280;46498;49.968;7.754;2023-05-08T05:31:15;-18666.00;;;12.19;100.00
28606;BME280;46498;49.968;7.754;2023-05-08T05:36:16;-18665.00;;;12.16;100.00
28606;BME280;46498;49.968;7.754;2023-05-08T05:41:18;-18666.00;;;12.18;100.00
28606;BME280;46498;49.968;7.754;2023-05-08T05:46:19;-18663.00;;;12.11;100.00
28606;BME280;46498;49.968;7.754;2023-05-08T05:51:21;-18667.00;;;12.22;100.00
28606;BME280;46498;49.968;7.754;2023-05-08T05:56:22;-18672.00;;;12.37;100.00
28606;BME280;46498;49.968;7.754;2023-05-08T06:01:23;-18670.00;;;12.32;100.00
28606;BME280;46498;49.968;7.754;2023-05-08T06:06:24;-18658.00;;;11.92;100.00
28606;BME280;46498;49.968;7.754;2023-05-08T06:11:27;-18663.00;;;12.10;100.00
28606;BME280;46498;49.968;7.754;2023-05-08T06:16:27;-18658.00;;;11.93;100.00
28606;BME280;46498;49.968;7.754;2023-05-08T06:21:30;-18665.00;;;12.16;100.00
28606;BME280;46498;49.968;7.754;2023-05-08T06:26:31;-18663.00;;;12.10;100.00
28606;BME280;46498;49.968;7.754;2023-05-08T06:31:32;-18663.00;;;12.08;100.00
28606;BME280;46498;49.968;7.754;2023-05-08T06:36:33;-18664.00;;;12.14;100.00
28606;BME280;46498;49.968;7.754;2023-05-08T06:41:34;-18652.00;;;11.74;100.00
28606;BME280;46498;49.968;7.754;2023-05-08T06:46:34;-18657.00;;;11.90;100.00
28606;BME280;46498;49.968;7.754;2023-05-08T06:51:36;-18658.00;;;11.95;100.00
28606;BME280;46498;49.968;7.754;2023-05-08T06:56:37;-18665.00;;;12.17;100.00
28606;BME280;46498;49.968;7.754;2023-05-08T07:01:38;-18666.00;;;12.18;100.00
28606;BME280;46498;49.968;7.754;2023-05-08T07:06:39;-18662.00;;;12.05;100.00
28606;BME280;46498;49.968;7.754;2023-05-08T07:11:40;-18665.00;;;12.17;100.00
28606;BME280;46498;49.968;7.754;2023-05-08T07:16:41;-18672.00;;;12.37;100.00
28606;BME280;46498;49.968;7.754;2023-05-08T07:21:42;-18672.00;;;12.37;100.00
28606;BME280;46498;49.968;7.754;2023-05-08T07:26:45;-18661.00;;;12.03;100.00
28606;BME280;46498;49.968;7.754;2023-05-08T07:31:46;-18662.00;;;12.07;100.00
28606;BME280;46498;49.968;7.754;2023-05-08T07:36:48;-18665.00;;;12.15;100.00
28606;BME280;46498;49.968;7.754;2023-05-08T07:41:49;-18657.00;;;11.90;100.00
28606;BME280;46498;49.968;7.754;2023-05-08T07:46:50;-18654.00;;;11.82;100.00
28606;BME280;46498;49.968;7.754;2023-05-08T07:51:52;-18656.00;;;11.86;100.00
28606;BME280;46498;49.968;7.754;2023-05-08T07:56:53;-18653.00;;;11.79;100.00
28606;BME280;46498;49.968;7.754;2023-05-08T08:01:53;-18649.00;;;11.66;100.00
28606;BME280;46498;49.968;7.754;2023-05-08T08:06:54;-18646.00;;;11.55;100.00
28606;BME280;46498;49.968;7.754;2023-05-08T08:11:55;-18647.00;;;11.59;100.00
28606;BME280;46498;49.968;7.754;2023-05-08T08:16:56;-18648.00;;;11.63;100.00
28606;BME280;46498;49.968;7.754;2023-05-08T08:21:57;-18648.00;;;11.62;100.00
28606;BME280;46498;49.968;7.754;2023-05-08T08:26:58;-18649.00;;;11.66;100.00
28606;BME280;46498;49.968;7.754;2023-05-08T08:31:59;-18647.00;;;11.59;100.00
28606;BME280;46498;49.968;7.754;2023-05-08T08:37:00;-18654.00;;;11.80;100.00
28606;BME280;46498;49.968;7.754;2023-05-08T08:42:01;-18654.00;;;11.82;100.00
28606;BME280;46498;49.968;7.754;2023-05-08T08:47:04;-18652.00;;;11.74;100.00
28606;BME280;46498;49.968;7.754;2023-05-08T08:52:40;-18647.00;;;11.58;100.00
28606;BME280;46498;49.968;7.754;2023-05-08T08:59:14;-18654.00;;;11.82;100.00
28606;BME280;46498;49.968;7.754;2023-05-08T09:04:16;-18649.00;;;11.66;100.00
28606;BME280;46498;49.968;7.754;2023-05-08T09:09:17;-18655.00;;;11.84;100.00
28606;BME280;46498;49.968;7.754;2023-05-08T09:14:19;-18665.00;;;12.15;100.00
28606;BME280;46498;49.968;7.754;2023-05-08T09:19:20;-18656.00;;;11.88;100.00
28606;BME280;46498;49.968;7.754;2023-05-08T09:24:53;-18669.00;;;12.27;100.00
28606;BME280;46498;49.968;7.754;2023-05-08T09:30:00;-18676.00;;;12.49;100.00
28606;BME280;46498;49.968;7.754;2023-05-08T09:35:04;-18669.00;;;12.27;100.00
28606;BME280;46498;49.968;7.754;2023-05-08T09:41:13;-18665.00;;;12.17;100.00
28606;BME280;46498;49.968;7.754;2023-05-08T09:46:22;-18667.00;;;12.21;100.00
28606;BME280;46498;49.968;7.754;2023-05-08T09:51:25;-18667.00;;;12.21;100.00
28606;BME280;46498;49.968;7.754;2023-05-08T09:56:34;-18673.00;;;12.39;100.00
28606;BME280;46498;49.968;7.754;2023-05-08T10:01:35;-18673.00;;;12.39;100.00
28606;BME280;46498;49.968;7.754;2023-05-08T10:06:37;-18674.00;;;12.45;100.00
28606;BME280;46498;49.968;7.754;2023-05-08T10:11:40;-18679.00;;;12.58;100.00
28606;BME280;46498;49.968;7.754;2023-05-08T10:16:43;-18675.00;;;12.47;100.00
28606;BME280;46498;49.968;7.754;2023-05-08T10:21:49;-18675.00;;;12.47;100.00
28606;BME280;46498;49.968;7.754;2023-05-08T10:27:11;-18674.00;;;12.44;100.00
28606;BME280;46498;49.968;7.754;2023-05-08T10:32:14;-18672.00;;;12.37;100.00
28606;BME280;46498;49.968;7.754;2023-05-08T10:37:18;-18679.00;;;12.58;100.00
28606;BME280;46498;49.968;7.754;2023-05-08T10:42:20;-18680.00;;;12.64;100.00
28606;BME280;46498;49.968;7.754;2023-05-08T10:47:32;-18674.00;;;12.45;100.00
28606;BME280;46498;49.968;7.754;2023-05-08T10:52:43;-18670.00;;;12.32;100.00
28606;BME280;46498;49.968;7.754;2023-05-08T10:58:13;-18674.00;;;12.44;100.00
28606;BME280;46498;49.968;7.754;2023-05-08T11:03:16;-18681.00;;;12.67;100.00
28606;BME280;46498;49.968;7.754;2023-05-08T11:08:42;-18686.00;;;12.80;100.00
28606;BME280;46498;49.968;7.754;2023-05-08T11:13:58;-18678.00;;;12.58;100.00
28606;BME280;46498;49.968;7.754;2023-05-08T11:19:19;-18677.00;;;12.52;100.00
28606;BME280;46498;49.968;7.754;2023-05-08T11:24:32;-18678.00;;;12.55;100.00
28606;BME280;46498;49.968;7.754;2023-05-08T11:29:33;-18673.00;;;12.40;100.00
28606;BME280;46498;49.968;7.754;2023-05-08T11:34:45;-18674.00;;;12.45;100.00
28606;BME280;46498;49.968;7.754;2023-05-08T11:39:47;-18673.00;;;12.41;100.00
28606;BME280;46498;49.968;7.754;2023-05-08T11:44:48;-18677.00;;;12.52;100.00
28606;BME280;46498;49.968;7.754;2023-05-08T11:49:50;-18679.00;;;12.59;100.00
28606;BME280;46498;49.968;7.754;2023-05-08T11:54:50;-18685.00;;;12.78;100.00
28606;BME280;46498;49.968;7.754;2023-05-08T11:59:51;-18691.00;;;12.96;100.00
28606;BME280;46498;49.968;7.754;2023-05-08T12:04:52;-18696.00;;;13.12;100.00
28606;BME280;46498;49.968;7.754;2023-05-08T12:09:54;-18707.00;;;13.46;100.00
28606;BME280;46498;49.968;7.754;2023-05-08T12:14:54;-18714.00;;;13.68;100.00
28606;BME280;46498;49.968;7.754;2023-05-08T12:19:55;-18707.00;;;13.48;100.00
28606;BME280;46498;49.968;7.754;2023-05-08T12:24:56;-18709.00;;;13.55;100.00
28606;BME280;46498;49.968;7.754;2023-05-08T12:29:57;-18715.00;;;13.73;100.00
28606;BME280;46498;49.968;7.754;2023-05-08T12:34:59;-18705.00;;;13.40;100.00
28606;BME280;46498;49.968;7.754;2023-05-08T12:40:00;-18706.00;;;13.44;100.00
28606;BME280;46498;49.968;7.754;2023-05-08T12:45:01;-18706.00;;;13.45;100.00
28606;BME280;46498;49.968;7.754;2023-05-08T12:50:02;-18704.00;;;13.37;100.00
28606;BME280;46498;49.968;7.754;2023-05-08T12:55:04;-18694.00;;;13.08;100.00
28606;BME280;46498;49.968;7.754;2023-05-08T13:00:06;-18690.00;;;12.94;100.00
28606;BME280;46498;49.968;7.754;2023-05-08T13:05:07;-18692.00;;;13.01;100.00
28606;BME280;46498;49.968;7.754;2023-05-08T13:10:08;-18686.00;;;12.81;100.00
28606;BME280;46498;49.968;7.754;2023-05-08T13:15:10;-18684.00;;;12.74;100.00
28606;BME280;46498;49.968;7.754;2023-05-08T13:20:11;-18685.00;;;12.77;100.00
28606;BME280;46498;49.968;7.754;2023-05-08T13:25:12;-18684.00;;;12.74;100.00
28606;BME280;46498;49.968;7.754;2023-05-08T13:30:14;-18685.00;;;12.77;100.00
28606;BME280;46498;49.968;7.754;2023-05-08T13:35:16;-18681.00;;;12.67;100.00
28606;BME280;46498;49.968;7.754;2023-05-08T13:40:18;-18684.00;;;12.75;100.00
28606;BME280;46498;49.968;7.754;2023-05-08T13:45:19;-18678.00;;;12.55;100.00
28606;BME280;46498;49.968;7.754;2023-05-08T13:50:20;-18684.00;;;12.76;100.00
28606;BME280;46498;49.968;7.754;2023-05-08T13:55:21;-18684.00;;;12.74;100.00
28606;BME280;46498;49.968;7.754;2023-05-08T14:00:23;-18684.00;;;12.76;100.00
28606;BME280;46498;49.968;7.754;2023-05-08T14:05:27;-18677.00;;;12.54;100.00
28606;BME280;46498;49.968;7.754;2023-05-08T14:10:27;-18682.00;;;12.69;100.00
28606;BME280;46498;49.968;7.754;2023-05-08T14:15:28;-18685.00;;;12.79;100.00
28606;BME280;46498;49.968;7.754;2023-05-08T14:20:37;-18696.00;;;13.11;100.00
28606;BME280;46498;49.968;7.754;2023-05-08T14:25:38;-18699.00;;;13.22;100.00
28606;BME280;46498;49.968;7.754;2023-05-08T14:30:39;-18703.00;;;13.35;100.00
28606;BME280;46498;49.968;7.754;2023-05-08T14:35:40;-18700.00;;;13.25;100.00
28606;BME280;46498;49.968;7.754;2023-05-08T14:40:42;-18706.00;;;13.45;100.00
28606;BME280;46498;49.968;7.754;2023-05-08T14:45:43;-18702.00;;;13.33;100.00
28606;BME280;46498;49.968;7.754;2023-05-08T14:50:44;-18712.00;;;13.62;100.00
28606;BME280;46498;49.968;7.754;2023-05-08T14:55:45;-18727.00;;;14.10;100.00
28606;BME280;46498;49.968;7.754;2023-05-08T15:00:46;-18736.00;;;14.40;100.00
28606;BME280;46498;49.968;7.754;2023-05-08T15:05:47;-18750.00;;;14.82;100.00
28606;BME280;46498;49.968;7.754;2023-05-08T15:10:48;-18755.00;;;14.99;100.00
28606;BME280;46498;49.968;7.754;2023-05-08T15:15:49;-18747.00;;;14.73;100.00
28606;BME280;46498;49.968;7.754;2023-05-08T15:20:50;-18735.00;;;14.34;100.00
28606;BME280;46498;49.968;7.754;2023-05-08T15:25:51;-18732.00;;;14.27;100.00
28606;BME280;46498;49.968;7.754;2023-05-08T15:30:52;-18733.00;;;14.29;100.00
28606;BME280;46498;49.968;7.754;2023-05-08T15:35:53;-18735.00;;;14.35;100.00
28606;BME280;46498;49.968;7.754;2023-05-08T15:40:53;-18738.00;;;14.45;100.00
28606;BME280;46498;49.968;7.754;2023-05-08T15:45:54;-18736.00;;;14.38;100.00
28606;BME280;46498;49.968;7.754;2023-05-08T15:50:55;-18735.00;;;14.34;100.00
28606;BME280;46498;49.968;7.754;2023-05-08T15:55:56;-18729.00;;;14.17;100.00
28606;BME280;46498;49.968;7.754;2023-05-08T16:00:58;-18727.00;;;14.10;100.00
28606;BME280;46498;49.968;7.754;2023-05-08T16:05:59;-18719.00;;;13.87;100.00
28606;BME280;46498;49.968;7.754;2023-05-08T16:11:00;-18721.00;;;13.92;100.00
28606;BME280;46498;49.968;7.754;2023-05-08T16:16:05;-18719.00;;;13.86;100.00
28606;BME280;46498;49.968;7.754;2023-05-08T16:21:09;-18722.00;;;13.96;100.00
28606;BME280;46498;49.968;7.754;2023-05-08T16:26:11;-18725.00;;;14.05;100.00
28606;BME280;46498;49.968;7.754;2023-05-08T16:31:13;-18725.00;;;14.05;100.00
28606;BME280;46498;49.968;7.754;2023-05-08T16:36:15;-18728.00;;;14.14;100.00
28606;BME280;46498;49.968;7.754;2023-05-08T16:41:16;-18730.00;;;14.18;100.00
28606;BME280;46498;49.968;7.754;2023-05-08T16:46:17;-18731.00;;;14.22;100.00
28606;BME280;46498;49.968;7.754;2023-05-08T16:51:30;-18728.00;;;14.13;100.00
28606;BME280;46498;49.968;7.754;2023-05-08T16:56:31;-18731.00;;;14.24;100.00
28606;BME280;46498;49.968;7.754;2023-05-08T17:01:32;-18730.00;;;14.19;100.00
28606;BME280;46498;49.968;7.754;2023-05-08T17:06:33;-18730.00;;;14.18;100.00
28606;BME280;46498;49.968;7.754;2023-05-08T17:11:34;-18732.00;;;14.27;100.00
28606;BME280;46498;49.968;7.754;2023-05-08T17:16:35;-18731.00;;;14.24;100.00
28606;BME280;46498;49.968;7.754;2023-05-08T17:21:36;-18730.00;;;14.20;100.00
28606;BME280;46498;49.968;7.754;2023-05-08T17:26:37;-18729.00;;;14.16;100.00
28606;BME280;46498;49.968;7.754;2023-05-08T17:31:38;-18729.00;;;14.17;100.00
28606;BME280;46498;49.968;7.754;2023-05-08T17:36:39;-18735.00;;;14.36;100.00
28606;BME280;46498;49.968;7.754;2023-05-08T17:41:40;-18732.00;;;14.26;100.00
28606;BME280;46498;49.968;7.754;2023-05-08T17:46:41;-18728.00;;;14.14;100.00
28606;BME280;46498;49.968;7.754;2023-05-08T17:51:42;-18731.00;;;14.23;100.00
28606;BME280;46498;49.968;7.754;2023-05-08T17:56:43;-18731.00;;;14.24;100.00
28606;BME280;46498;49.968;7.754;2023-05-08T18:01:44;-18730.00;;;14.19;100.00
28606;BME280;46498;49.968;7.754;2023-05-08T18:06:45;-18729.00;;;14.16;100.00
28606;BME280;46498;49.968;7.754;2023-05-08T18:11:48;-18729.00;;;14.17;100.00
28606;BME280;46498;49.968;7.754;2023-05-08T18:16:49;-18730.00;;;14.19;100.00
28606;BME280;46498;49.968;7.754;2023-05-08T18:21:50;-18729.00;;;14.18;100.00
28606;BME280;46498;49.968;7.754;2023-05-08T18:26:51;-18728.00;;;14.14;100.00
28606;BME280;46498;49.968;7.754;2023-05-08T18:31:53;-18726.00;;;14.07;100.00
28606;BME280;46498;49.968;7.754;2023-05-08T18:36:54;-18724.00;;;14.02;100.00
28606;BME280;46498;49.968;7.754;2023-05-08T18:41:58;-18721.00;;;13.91;100.00
28606;BME280;46498;49.968;7.754;2023-05-08T18:46:59;-18717.00;;;13.78;100.00
28606;BME280;46498;49.968;7.754;2023-05-08T18:52:01;-18709.00;;;13.54;100.00
28606;BME280;46498;49.968;7.754;2023-05-08T18:57:02;-18704.00;;;13.39;100.00
28606;BME280;46498;49.968;7.754;2023-05-08T19:02:03;-18699.00;;;13.22;100.00
28606;BME280;46498;49.968;7.754;2023-05-08T19:07:04;-18695.00;;;13.09;100.00
28606;BME280;46498;49.968;7.754;2023-05-08T19:12:05;-18693.00;;;13.04;100.00
28606;BME280;46498;49.968;7.754;2023-05-08T19:17:06;-18694.00;;;13.06;100.00
28606;BME280;46498;49.968;7.754;2023-05-08T19:22:07;-18700.00;;;13.25;100.00
28606;BME280;46498;49.968;7.754;2023-05-08T19:27:08;-18693.00;;;13.03;100.00
28606;BME280;46498;49.968;7.754;2023-05-08T19:32:08;-18693.00;;;13.05;100.00
28606;BME280;46498;49.968;7.754;2023-05-08T19:37:09;-18694.00;;;13.08;100.00
28606;BME280;46498;49.968;7.754;2023-05-08T19:42:10;-18696.00;;;13.13;100.00
28606;BME280;46498;49.968;7.754;2023-05-08T19:47:13;-18697.00;;;13.15;100.00
28606;BME280;46498;49.968;7.754;2023-05-08T19:52:14;-18694.00;;;13.06;100.00
28606;BME280;46498;49.968;7.754;2023-05-08T19:57:15;-18693.00;;;13.03;100.00
28606;BME280;46498;49.968;7.754;2023-05-08T20:02:16;-18695.00;;;13.10;100.00
28606;BME280;46498;49.968;7.754;2023-05-08T20:07:16;-18692.00;;;13.01;100.00
28606;BME280;46498;49.968;7.754;2023-05-08T20:12:18;-18693.00;;;13.04;100.00
28606;BME280;46498;49.968;7.754;2023-05-08T20:17:19;-18692.00;;;13.01;100.00
28606;BME280;46498;49.968;7.754;2023-05-08T20:22:19;-18689.00;;;12.90;100.00
28606;BME280;46498;49.968;7.754;2023-05-08T20:27:20;-18687.00;;;12.83;100.00
28606;BME280;46498;49.968;7.754;2023-05-08T20:32:24;-18691.00;;;12.97;100.00
28606;BME280;46498;49.968;7.754;2023-05-08T20:37:24;-18691.00;;;12.98;100.00
28606;BME280;46498;49.968;7.754;2023-05-08T20:42:25;-18691.00;;;12.98;100.00
28606;BME280;46498;49.968;7.754;2023-05-08T20:47:26;-18693.00;;;13.03;100.00
28606;BME280;46498;49.968;7.754;2023-05-08T20:52:27;-18694.00;;;13.06;100.00
28606;BME280;46498;49.968;7.754;2023-05-08T20:57:28;-18691.00;;;12.97;100.00
28606;BME280;46498;49.968;7.754;2023-05-08T21:02:29;-18690.00;;;12.95;100.00
28606;BME280;46498;49.968;7.754;2023-05-08T21:07:30;-18692.00;;;13.01;100.00
28606;BME280;46498;49.968;7.754;2023-05-08T21:12:31;-18692.00;;;13.02;100.00
28606;BME280;46498;49.968;7.754;2023-05-08T21:17:32;-18691.00;;;12.97;100.00
28606;BME280;46498;49.968;7.754;2023-05-08T21:22:32;-18691.00;;;12.99;100.00
28606;BME280;46498;49.968;7.754;2023-05-08T21:27:47;-18690.00;;;12.93;100.00
28606;BME280;46498;49.968;7.754;2023-05-08T21:32:48;-18689.00;;;12.90;100.00
28606;BME280;46498;49.968;7.754;2023-05-08T21:37:49;-18691.00;;;12.97;100.00
28606;BME280;46498;49.968;7.754;2023-05-08T21:42:53;-18688.00;;;12.88;100.00
28606;BME280;46498;49.968;7.754;2023-05-08T21:47:54;-18689.00;;;12.92;100.00
28606;BME280;46498;49.968;7.754;2023-05-08T21:52:55;-18688.00;;;12.88;100.00
28606;BME280;46498;49.968;7.754;2023-05-08T21:57:56;-18687.00;;;12.84;100.00
28606;BME280;46498;49.968;7.754;2023-05-08T22:02:57;-18688.00;;;12.89;100.00
28606;BME280;46498;49.968;7.754;2023-05-08T22:07:58;-18689.00;;;12.90;100.00
28606;BME280;46498;49.968;7.754;2023-05-08T22:12:59;-18688.00;;;12.88;100.00
28606;BME280;46498;49.968;7.754;2023-05-08T22:18:01;-18688.00;;;12.88;100.00
28606;BME280;46498;49.968;7.754;2023-05-08T22:23:02;-18688.00;;;12.87;100.00
28606;BME280;46498;49.968;7.754;2023-05-08T22:28:03;-18687.00;;;12.85;100.00
28606;BME280;46498;49.968;7.754;2023-05-08T22:33:04;-18689.00;;;12.92;100.00
28606;BME280;46498;49.968;7.754;2023-05-08T22:38:05;-18691.00;;;12.96;100.00
28606;BME280;46498;49.968;7.754;2023-05-08T22:43:05;-18688.00;;;12.89;100.00
28606;BME280;46498;49.968;7.754;2023-05-08T22:48:06;-18690.00;;;12.94;100.00
28606;BME280;46498;49.968;7.754;2023-05-08T22:53:07;-18692.00;;;13.00;100.00
28606;BME280;46498;49.968;7.754;2023-05-08T22:58:10;-18692.00;;;13.01;100.00
28606;BME280;46498;49.968;7.754;2023-05-08T23:03:11;-18694.00;;;13.06;100.00
28606;BME280;46498;49.968;7.754;2023-05-08T23:08:13;-18695.00;;;13.10;100.00
28606;BME280;46498;49.968;7.754;2023-05-08T23:13:14;-18694.00;;;13.08;100.00
28606;BME280;46498;49.968;7.754;2023-05-08T23:18:14;-18692.00;;;13.01;100.00
28606;BME280;46498;49.968;7.754;2023-05-08T23:23:15;-18695.00;;;13.09;100.00
28606;BME280;46498;49.968;7.754;2023-05-08T23:28:16;-18695.00;;;13.08;100.00
28606;BME280;46498;49.968;7.754;2023-05-08T23:33:17;-18689.00;;;12.91;100.00
28606;BME280;46498;49.968;7.754;2023-05-08T23:38:18;-18691.00;;;12.96;100.00
28606;BME280;46498;49.968;7.754;2023-05-08T23:43:19;-18691.00;;;12.99;100.00
28606;BME280;46498;49.968;7.754;2023-05-08T23:48:20;-18694.00;;;13.07;100.00
28606;BME280;46498;49.968;7.754;2023-05-08T23:53:21;-18695.00;;;13.10;100.00
28606;BME280;46498;49.968;7.754;2023-05-08T23:58:21;-18690.00;;;12.93;100.00
